sensor_id;sensor_type;location;lat;lon;timestamp;pressure;altitude;pressure_sealevel;temperature;humidity
73455;BME280;61690;51.824;6.306;2023-03-05T00:01:06;102092.22;;;17.63;41.94
73455;BME280;61690;51.824;6.306;2023-03-05T00:03:31;102091.38;;;17.62;41.88
73455;BME280;61690;51.824;6.306;2023-03-05T00:05:57;102087.03;;;17.61;41.99
73455;BME280;61690;51.824;6.306;2023-03-05T00:08:22;102084.44;;;17.60;41.89
73455;BME280;61690;51.824;6.306;2023-03-05T00:11:02;102083.59;;;17.59;42.13
73455;BME280;61690;51.824;6.306;2023-03-05T00:13:28;102077.50;;;17.59;41.81
73455;BME280;61690;51.824;6.306;2023-03-05T00:15:53;102077.44;;;17.60;41.98
73455;BME280;61690;51.824;6.306;2023-03-05T00:18:19;102079.19;;;17.60;42.09
73455;BME280;61690;51.824;6.306;2023-03-05T00:20:45;102076.75;;;17.55;42.15
73455;BME280;61690;51.824;6.306;2023-03-05T00:23:10;102074.13;;;17.55;42.11
73455;BME280;61690;51.824;6.306;2023-03-05T00:25:36;102078.56;;;17.55;42.15
73455;BME280;61690;51.824;6.306;2023-03-05T00:28:02;102074.97;;;17.56;41.81
73455;BME280;61690;51.824;6.306;2023-03-05T00:30:28;102069.66;;;17.57;41.80
73455;BME280;61690;51.824;6.306;2023-03-05T00:32:53;102063.72;;;17.52;41.96
73455;BME280;61690;51.824;6.306;2023-03-05T00:35:19;102063.72;;;17.52;42.02
73455;BME280;61690;51.824;6.306;2023-03-05T00:37:44;102056.88;;;17.48;41.76
73455;BME280;61690;51.824;6.306;2023-03-05T00:40:10;102057.81;;;17.47;42.08
73455;BME280;61690;51.824;6.306;2023-03-05T00:42:35;102064.00;;;17.46;42.00
73455;BME280;61690;51.824;6.306;2023-03-05T00:45:04;102066.50;;;17.49;42.09
73455;BME280;61690;51.824;6.306;2023-03-05T00:47:29;102054.25;;;17.48;42.11
73455;BME280;61690;51.824;6.306;2023-03-05T00:49:54;102055.03;;;17.50;41.75
73455;BME280;61690;51.824;6.306;2023-03-05T00:52:20;102048.31;;;17.43;41.72
73455;BME280;61690;51.824;6.306;2023-03-05T00:54:45;102048.28;;;17.44;41.54
73455;BME280;61690;51.824;6.306;2023-03-05T00:57:10;102050.13;;;17.42;41.97
73455;BME280;61690;51.824;6.306;2023-03-05T00:59:36;102036.91;;;17.44;42.06
73455;BME280;61690;51.824;6.306;2023-03-05T01:02:01;102039.53;;;17.44;41.67
73455;BME280;61690;51.824;6.306;2023-03-05T01:04:26;102030.84;;;17.42;42.00
73455;BME280;61690;51.824;6.306;2023-03-05T01:06:51;102037.81;;;17.43;41.86
73455;BME280;61690;51.824;6.306;2023-03-05T01:09:17;102031.75;;;17.41;42.08
73455;BME280;61690;51.824;6.306;2023-03-05T01:11:42;102031.75;;;17.41;41.73
73455;BME280;61690;51.824;6.306;2023-03-05T01:14:07;102028.28;;;17.40;42.02
73455;BME280;61690;51.824;6.306;2023-03-05T01:16:33;102025.78;;;17.37;42.15
73455;BME280;61690;51.824;6.306;2023-03-05T01:18:58;102018.59;;;17.41;41.89
73455;BME280;61690;51.824;6.306;2023-03-05T01:21:23;102025.72;;;17.39;41.76
73455;BME280;61690;51.824;6.306;2023-03-05T01:23:49;102014.34;;;17.38;41.85
73455;BME280;61690;51.824;6.306;2023-03-05T01:26:14;102018.75;;;17.38;42.02
73455;BME280;61690;51.824;6.306;2023-03-05T01:28:39;102021.44;;;17.36;41.83
73455;BME280;61690;51.824;6.306;2023-03-05T01:31:09;102016.13;;;17.38;41.94
73455;BME280;61690;51.824;6.306;2023-03-05T01:33:34;102013.56;;;17.36;42.13
73455;BME280;61690;51.824;6.306;2023-03-05T01:36:00;102018.88;;;17.35;41.84
73455;BME280;61690;51.824;6.306;2023-03-05T01:38:25;102009.19;;;17.35;41.98
73455;BME280;61690;51.824;6.306;2023-03-05T01:40:50;102008.50;;;17.32;41.70
73455;BME280;61690;51.824;6.306;2023-03-05T01:43:27;102008.34;;;17.35;42.08
73455;BME280;61690;51.824;6.306;2023-03-05T01:48:38;102002.38;;;17.31;42.19
73455;BME280;61690;51.824;6.306;2023-03-05T01:51:04;101997.97;;;17.32;41.92
73455;BME280;61690;51.824;6.306;2023-03-05T01:53:30;101999.88;;;17.28;41.76
73455;BME280;61690;51.824;6.306;2023-03-05T01:55:56;101992.97;;;17.25;41.76
73455;BME280;61690;51.824;6.306;2023-03-05T01:58:22;101984.16;;;17.27;41.74
73455;BME280;61690;51.824;6.306;2023-03-05T02:00:51;101983.22;;;17.28;42.09
73455;BME280;61690;51.824;6.306;2023-03-05T02:03:17;101975.44;;;17.26;41.98
73455;BME280;61690;51.824;6.306;2023-03-05T02:05:43;101973.75;;;17.23;41.96
73455;BME280;61690;51.824;6.306;2023-03-05T02:08:12;101971.06;;;17.25;42.06
73455;BME280;61690;51.824;6.306;2023-03-05T02:10:41;101969.44;;;17.22;41.64
73455;BME280;61690;51.824;6.306;2023-03-05T02:13:10;101969.44;;;17.22;42.05
73455;BME280;61690;51.824;6.306;2023-03-05T02:15:37;101961.63;;;17.21;41.96
73455;BME280;61690;51.824;6.306;2023-03-05T02:18:04;101951.03;;;17.22;41.75
73455;BME280;61690;51.824;6.306;2023-03-05T02:20:42;101945.06;;;17.19;41.75
73455;BME280;61690;51.824;6.306;2023-03-05T02:23:08;101940.63;;;17.19;41.90
73455;BME280;61690;51.824;6.306;2023-03-05T02:25:34;101942.38;;;17.20;41.96
73455;BME280;61690;51.824;6.306;2023-03-05T02:28:31;101939.00;;;17.17;42.25
73455;BME280;61690;51.824;6.306;2023-03-05T02:30:59;101941.56;;;17.18;42.03
73455;BME280;61690;51.824;6.306;2023-03-05T02:33:24;101940.69;;;17.18;41.87
73455;BME280;61690;51.824;6.306;2023-03-05T02:35:49;101944.13;;;17.20;42.01
73455;BME280;61690;51.824;6.306;2023-03-05T02:38:17;101930.38;;;17.13;42.00
73455;BME280;61690;51.824;6.306;2023-03-05T02:40:43;101926.81;;;17.14;42.00
73455;BME280;61690;51.824;6.306;2023-03-05T02:43:08;101931.19;;;17.15;42.19
73455;BME280;61690;51.824;6.306;2023-03-05T02:45:34;101922.50;;;17.13;42.35
73455;BME280;61690;51.824;6.306;2023-03-05T02:47:59;101915.47;;;17.14;41.72
73455;BME280;61690;51.824;6.306;2023-03-05T02:50:26;101912.09;;;17.10;42.02
73455;BME280;61690;51.824;6.306;2023-03-05T02:52:52;101913.84;;;17.11;41.97
73455;BME280;61690;51.824;6.306;2023-03-05T02:55:17;101904.22;;;17.10;42.20
73455;BME280;61690;51.824;6.306;2023-03-05T02:57:42;101907.63;;;17.12;41.68
73455;BME280;61690;51.824;6.306;2023-03-05T03:00:08;101903.25;;;17.13;41.76
73455;BME280;61690;51.824;6.306;2023-03-05T03:02:34;101888.38;;;17.12;41.92
73455;BME280;61690;51.824;6.306;2023-03-05T03:04:59;101890.28;;;17.08;41.74
73455;BME280;61690;51.824;6.306;2023-03-05T03:07:25;101883.28;;;17.09;41.65
73455;BME280;61690;51.824;6.306;2023-03-05T03:09:50;101880.72;;;17.07;42.17
73455;BME280;61690;51.824;6.306;2023-03-05T03:12:15;101881.63;;;17.06;41.54
73455;BME280;61690;51.824;6.306;2023-03-05T03:14:41;101882.56;;;17.05;41.67
73455;BME280;61690;51.824;6.306;2023-03-05T03:17:12;101883.97;;;17.12;41.76
73455;BME280;61690;51.824;6.306;2023-03-05T03:19:38;101877.94;;;17.10;41.55
73455;BME280;61690;51.824;6.306;2023-03-05T03:22:05;101871.88;;;17.08;41.63
73455;BME280;61690;51.824;6.306;2023-03-05T03:24:31;101864.06;;;17.07;41.92
73455;BME280;61690;51.824;6.306;2023-03-05T03:26:57;101866.63;;;17.08;41.88
73455;BME280;61690;51.824;6.306;2023-03-05T03:29:22;101860.66;;;17.04;41.72
73455;BME280;61690;51.824;6.306;2023-03-05T03:31:48;101864.28;;;17.02;41.73
73455;BME280;61690;51.824;6.306;2023-03-05T03:34:14;101857.34;;;17.01;42.00
73455;BME280;61690;51.824;6.306;2023-03-05T03:36:41;101855.53;;;17.01;42.04
73455;BME280;61690;51.824;6.306;2023-03-05T03:39:06;101855.59;;;17.00;41.88
73455;BME280;61690;51.824;6.306;2023-03-05T03:41:35;101849.44;;;17.01;41.89
73455;BME280;61690;51.824;6.306;2023-03-05T03:44:00;101839.84;;;17.00;41.98
73455;BME280;61690;51.824;6.306;2023-03-05T03:46:27;101844.09;;;17.02;41.65
73455;BME280;61690;51.824;6.306;2023-03-05T03:48:52;101838.06;;;17.00;41.93
73455;BME280;61690;51.824;6.306;2023-03-05T03:51:18;101836.41;;;16.98;41.78
73455;BME280;61690;51.824;6.306;2023-03-05T03:53:43;101831.94;;;17.00;41.67
73455;BME280;61690;51.824;6.306;2023-03-05T03:56:08;101823.34;;;16.96;41.94
73455;BME280;61690;51.824;6.306;2023-03-05T03:58:34;101818.03;;;16.98;41.74
73455;BME280;61690;51.824;6.306;2023-03-05T04:00:59;101809.34;;;16.96;41.96
73455;BME280;61690;51.824;6.306;2023-03-05T04:03:25;101805.78;;;16.97;41.74
73455;BME280;61690;51.824;6.306;2023-03-05T04:05:50;101815.53;;;16.95;42.09
73455;BME280;61690;51.824;6.306;2023-03-05T04:08:15;101819.09;;;16.94;42.11
73455;BME280;61690;51.824;6.306;2023-03-05T04:10:40;101819.09;;;16.94;42.23
73455;BME280;61690;51.824;6.306;2023-03-05T04:13:06;101819.09;;;16.94;42.00
73455;BME280;61690;51.824;6.306;2023-03-05T04:15:32;101815.53;;;16.95;41.85
73455;BME280;61690;51.824;6.306;2023-03-05T04:17:57;101811.13;;;16.95;41.54
73455;BME280;61690;51.824;6.306;2023-03-05T04:20:23;101812.97;;;16.93;42.01
73455;BME280;61690;51.824;6.306;2023-03-05T04:22:48;101804.22;;;16.93;41.98
73455;BME280;61690;51.824;6.306;2023-03-05T04:25:13;101807.00;;;16.90;41.65
73455;BME280;61690;51.824;6.306;2023-03-05T04:27:38;101801.59;;;16.93;41.70
73455;BME280;61690;51.824;6.306;2023-03-05T04:30:05;101798.19;;;16.91;41.82
73455;BME280;61690;51.824;6.306;2023-03-05T04:32:31;101802.72;;;16.87;41.93
73455;BME280;61690;51.824;6.306;2023-03-05T04:34:56;101803.59;;;16.88;41.93
73455;BME280;61690;51.824;6.306;2023-03-05T04:37:23;101797.41;;;16.89;41.89
73455;BME280;61690;51.824;6.306;2023-03-05T04:39:48;101793.91;;;16.88;41.50
73455;BME280;61690;51.824;6.306;2023-03-05T04:42:13;101789.63;;;16.85;41.66
73455;BME280;61690;51.824;6.306;2023-03-05T04:44:39;101792.25;;;16.85;41.91
73455;BME280;61690;51.824;6.306;2023-03-05T04:47:04;101787.94;;;16.84;41.84
73455;BME280;61690;51.824;6.306;2023-03-05T04:49:29;101788.03;;;16.81;42.00
73455;BME280;61690;51.824;6.306;2023-03-05T04:51:55;101784.53;;;16.82;42.12
73455;BME280;61690;51.824;6.306;2023-03-05T04:54:22;101779.28;;;16.82;41.68
73455;BME280;61690;51.824;6.306;2023-03-05T04:56:47;101782.69;;;16.84;41.95
73455;BME280;61690;51.824;6.306;2023-03-05T04:59:12;101780.13;;;16.83;41.64
73455;BME280;61690;51.824;6.306;2023-03-05T05:01:37;101771.25;;;16.85;41.75
73455;BME280;61690;51.824;6.306;2023-03-05T05:04:03;101773.22;;;16.80;41.79
73455;BME280;61690;51.824;6.306;2023-03-05T05:06:28;101768.00;;;16.79;41.65
73455;BME280;61690;51.824;6.306;2023-03-05T05:08:54;101766.16;;;16.81;41.72
73455;BME280;61690;51.824;6.306;2023-03-05T05:11:19;101769.78;;;16.78;41.87
73455;BME280;61690;51.824;6.306;2023-03-05T05:13:44;101772.47;;;16.77;41.68
73455;BME280;61690;51.824;6.306;2023-03-05T05:16:09;101763.59;;;16.79;41.52
73455;BME280;61690;51.824;6.306;2023-03-05T05:18:35;101761.97;;;16.77;41.61
73455;BME280;61690;51.824;6.306;2023-03-05T05:21:00;101766.28;;;16.78;41.80
73455;BME280;61690;51.824;6.306;2023-03-05T05:23:26;101757.63;;;16.76;41.99
73455;BME280;61690;51.824;6.306;2023-03-05T05:25:56;101760.19;;;16.77;41.87
73455;BME280;61690;51.824;6.306;2023-03-05T05:28:21;101757.56;;;16.77;41.90
73455;BME280;61690;51.824;6.306;2023-03-05T05:30:47;101751.59;;;16.74;41.91
73455;BME280;61690;51.824;6.306;2023-03-05T05:33:12;101751.59;;;16.74;41.92
73455;BME280;61690;51.824;6.306;2023-03-05T05:35:38;101756.78;;;16.75;41.83
73455;BME280;61690;51.824;6.306;2023-03-05T05:38:03;101748.97;;;16.74;41.90
73455;BME280;61690;51.824;6.306;2023-03-05T05:40:28;101755.94;;;16.75;41.75
73455;BME280;61690;51.824;6.306;2023-03-05T05:42:54;101753.50;;;16.70;41.70
73455;BME280;61690;51.824;6.306;2023-03-05T05:45:19;101747.34;;;16.71;41.95
73455;BME280;61690;51.824;6.306;2023-03-05T05:47:44;101742.91;;;16.72;41.99
73455;BME280;61690;51.824;6.306;2023-03-05T05:50:11;101752.72;;;16.68;42.23
73455;BME280;61690;51.824;6.306;2023-03-05T05:52:36;101743.97;;;16.67;41.75
73455;BME280;61690;51.824;6.306;2023-03-05T05:55:02;101738.72;;;16.67;42.11
73455;BME280;61690;51.824;6.306;2023-03-05T05:57:27;101734.06;;;16.74;42.06
73455;BME280;61690;51.824;6.306;2023-03-05T05:59:52;101733.53;;;16.87;41.76
73455;BME280;61690;51.824;6.306;2023-03-05T06:02:17;101740.25;;;16.94;41.27
73455;BME280;61690;51.824;6.306;2023-03-05T06:04:44;101735.97;;;17.10;41.07
73455;BME280;61690;51.824;6.306;2023-03-05T06:07:09;101737.13;;;17.23;40.52
73455;BME280;61690;51.824;6.306;2023-03-05T06:09:35;101739.63;;;17.27;40.84
73455;BME280;61690;51.824;6.306;2023-03-05T06:12:00;101743.81;;;17.31;40.58
73455;BME280;61690;51.824;6.306;2023-03-05T06:14:26;101732.28;;;17.33;40.41
73455;BME280;61690;51.824;6.306;2023-03-05T06:16:51;101730.38;;;17.37;40.46
73455;BME280;61690;51.824;6.306;2023-03-05T06:19:16;101733.94;;;17.36;40.76
73455;BME280;61690;51.824;6.306;2023-03-05T06:21:42;101734.34;;;17.46;40.24
73455;BME280;61690;51.824;6.306;2023-03-05T06:24:07;101732.69;;;17.62;39.90
73455;BME280;61690;51.824;6.306;2023-03-05T06:26:33;101729.97;;;17.63;39.79
73455;BME280;61690;51.824;6.306;2023-03-05T06:28:58;101730.38;;;17.73;40.12
73455;BME280;61690;51.824;6.306;2023-03-05T06:31:25;101735.00;;;17.87;39.47
73455;BME280;61690;51.824;6.306;2023-03-05T06:33:53;101732.69;;;17.98;39.31
73455;BME280;61690;51.824;6.306;2023-03-05T06:36:20;101735.06;;;18.05;39.54
73455;BME280;61690;51.824;6.306;2023-03-05T06:38:47;101728.84;;;18.06;39.33
73455;BME280;61690;51.824;6.306;2023-03-05T06:41:15;101731.16;;;18.12;39.29
73455;BME280;61690;51.824;6.306;2023-03-05T06:43:42;101722.88;;;18.19;39.09
73455;BME280;61690;51.824;6.306;2023-03-05T06:46:20;101721.56;;;18.28;39.26
73455;BME280;61690;51.824;6.306;2023-03-05T06:48:47;101730.16;;;18.32;38.88
73455;BME280;61690;51.824;6.306;2023-03-05T06:51:24;101726.38;;;18.37;38.95
73455;BME280;61690;51.824;6.306;2023-03-05T06:53:51;101729.59;;;18.42;38.80
73455;BME280;61690;51.824;6.306;2023-03-05T06:56:18;101726.66;;;18.49;38.70
73455;BME280;61690;51.824;6.306;2023-03-05T06:58:45;101727.44;;;18.51;38.88
73455;BME280;61690;51.824;6.306;2023-03-05T07:01:11;101725.56;;;18.53;38.62
73455;BME280;61690;51.824;6.306;2023-03-05T07:03:37;101717.28;;;18.60;38.97
73455;BME280;61690;51.824;6.306;2023-03-05T07:06:04;101721.53;;;18.63;38.46
73455;BME280;61690;51.824;6.306;2023-03-05T07:08:29;101718.63;;;18.68;38.84
73455;BME280;61690;51.824;6.306;2023-03-05T07:10:55;101720.34;;;18.69;38.39
73455;BME280;61690;51.824;6.306;2023-03-05T07:13:20;101713.28;;;18.69;38.60
73455;BME280;61690;51.824;6.306;2023-03-05T07:15:46;101717.44;;;18.73;38.86
73455;BME280;61690;51.824;6.306;2023-03-05T07:18:11;101717.31;;;18.76;38.20
73455;BME280;61690;51.824;6.306;2023-03-05T07:20:36;101712.59;;;18.83;38.46
73455;BME280;61690;51.824;6.306;2023-03-05T07:23:02;101705.47;;;18.85;38.48
73455;BME280;61690;51.824;6.306;2023-03-05T07:25:28;101707.00;;;18.89;38.67
73455;BME280;61690;51.824;6.306;2023-03-05T07:27:53;101711.25;;;18.92;38.47
73455;BME280;61690;51.824;6.306;2023-03-05T07:30:18;101708.59;;;18.92;38.69
73455;BME280;61690;51.824;6.306;2023-03-05T07:32:44;101711.84;;;18.97;38.35
73455;BME280;61690;51.824;6.306;2023-03-05T07:35:09;101705.56;;;18.99;38.52
73455;BME280;61690;51.824;6.306;2023-03-05T07:37:34;101710.13;;;18.96;38.53
73455;BME280;61690;51.824;6.306;2023-03-05T07:40:00;101715.41;;;18.96;38.79
73455;BME280;61690;51.824;6.306;2023-03-05T07:42:25;101709.56;;;18.91;39.11
73455;BME280;61690;51.824;6.306;2023-03-05T07:44:50;101714.22;;;18.86;39.03
73455;BME280;61690;51.824;6.306;2023-03-05T07:47:16;101708.56;;;18.76;39.02
73455;BME280;61690;51.824;6.306;2023-03-05T07:49:41;101705.16;;;18.74;38.86
73455;BME280;61690;51.824;6.306;2023-03-05T07:52:07;101707.78;;;18.74;39.14
73455;BME280;61690;51.824;6.306;2023-03-05T07:54:33;101693.91;;;18.70;39.25
73455;BME280;61690;51.824;6.306;2023-03-05T07:57:05;101701.13;;;18.67;39.05
73455;BME280;61690;51.824;6.306;2023-03-05T07:59:31;101693.31;;;18.65;39.41
73455;BME280;61690;51.824;6.306;2023-03-05T08:01:57;101697.88;;;18.61;39.17
73455;BME280;61690;51.824;6.306;2023-03-05T08:04:22;101705.78;;;18.61;39.69
73455;BME280;61690;51.824;6.306;2023-03-05T08:06:47;101703.16;;;18.61;39.60
73455;BME280;61690;51.824;6.306;2023-03-05T08:09:14;101691.00;;;18.59;39.66
73455;BME280;61690;51.824;6.306;2023-03-05T08:11:39;101690.31;;;18.55;39.15
73455;BME280;61690;51.824;6.306;2023-03-05T08:14:05;101692.09;;;18.55;39.58
73455;BME280;61690;51.824;6.306;2023-03-05T08:16:30;101691.41;;;18.51;39.48
73455;BME280;61690;51.824;6.306;2023-03-05T08:18:57;101687.16;;;18.49;39.44
73455;BME280;61690;51.824;6.306;2023-03-05T08:21:30;101689.03;;;18.47;39.34
73455;BME280;61690;51.824;6.306;2023-03-05T08:24:04;101687.31;;;18.46;39.58
73455;BME280;61690;51.824;6.306;2023-03-05T08:26:31;101683.97;;;18.42;39.21
73455;BME280;61690;51.824;6.306;2023-03-05T08:28:57;101681.25;;;18.44;39.85
73455;BME280;61690;51.824;6.306;2023-03-05T08:31:24;101679.53;;;18.42;39.76
73455;BME280;61690;51.824;6.306;2023-03-05T08:33:52;101683.97;;;18.42;39.43
73455;BME280;61690;51.824;6.306;2023-03-05T08:36:18;101681.34;;;18.42;39.53
73455;BME280;61690;51.824;6.306;2023-03-05T08:38:43;101675.22;;;18.41;39.35
73455;BME280;61690;51.824;6.306;2023-03-05T08:41:11;101679.72;;;18.39;39.96
73455;BME280;61690;51.824;6.306;2023-03-05T08:43:37;101672.59;;;18.41;39.29
73455;BME280;61690;51.824;6.306;2023-03-05T08:46:03;101679.72;;;18.39;39.81
73455;BME280;61690;51.824;6.306;2023-03-05T08:48:29;101671.81;;;18.39;39.79
73455;BME280;61690;51.824;6.306;2023-03-05T08:50:55;101680.63;;;18.38;39.78
73455;BME280;61690;51.824;6.306;2023-03-05T08:53:21;101669.19;;;18.39;39.59
73455;BME280;61690;51.824;6.306;2023-03-05T08:55:54;101678.00;;;18.38;39.89
73455;BME280;61690;51.824;6.306;2023-03-05T08:58:19;101667.31;;;18.41;39.68
73455;BME280;61690;51.824;6.306;2023-03-05T09:00:45;101668.34;;;18.39;39.91
73455;BME280;61690;51.824;6.306;2023-03-05T09:03:10;101656.88;;;18.40;39.54
73455;BME280;61690;51.824;6.306;2023-03-05T09:05:35;101668.25;;;18.40;39.82
73455;BME280;61690;51.824;6.306;2023-03-05T09:08:00;101657.72;;;18.40;39.18
73455;BME280;61690;51.824;6.306;2023-03-05T09:10:26;101659.44;;;18.41;39.50
73455;BME280;61690;51.824;6.306;2023-03-05T09:12:51;101659.25;;;18.45;39.78
73455;BME280;61690;51.824;6.306;2023-03-05T09:15:16;101655.53;;;18.49;39.48
73455;BME280;61690;51.824;6.306;2023-03-05T09:17:41;101654.66;;;18.48;39.60
73455;BME280;61690;51.824;6.306;2023-03-05T09:20:11;101654.66;;;18.48;39.68
73455;BME280;61690;51.824;6.306;2023-03-05T09:22:36;101644.47;;;18.42;39.60
73455;BME280;61690;51.824;6.306;2023-03-05T09:25:02;101654.84;;;18.45;39.69
73455;BME280;61690;51.824;6.306;2023-03-05T09:27:27;101646.06;;;18.45;39.77
73455;BME280;61690;51.824;6.306;2023-03-05T09:29:52;101644.81;;;18.52;39.93
73455;BME280;61690;51.824;6.306;2023-03-05T09:32:18;101642.94;;;18.54;39.73
73455;BME280;61690;51.824;6.306;2023-03-05T09:34:43;101638.38;;;18.57;39.63
73455;BME280;61690;51.824;6.306;2023-03-05T09:37:08;101633.28;;;18.54;39.91
73455;BME280;61690;51.824;6.306;2023-03-05T09:39:34;101642.19;;;18.52;39.88
73455;BME280;61690;51.824;6.306;2023-03-05T09:42:16;101641.41;;;18.50;40.08
73455;BME280;61690;51.824;6.306;2023-03-05T09:47:51;101638.78;;;18.50;40.15
73455;BME280;61690;51.824;6.306;2023-03-05T09:50:34;101631.97;;;18.46;39.86
73455;BME280;61690;51.824;6.306;2023-03-05T09:55:56;101614.31;;;18.48;39.94
73455;BME280;61690;51.824;6.306;2023-03-05T09:58:33;101621.09;;;18.52;40.00
73455;BME280;61690;51.824;6.306;2023-03-05T10:01:03;101619.41;;;18.51;39.88
73455;BME280;61690;51.824;6.306;2023-03-05T10:06:26;101616.94;;;18.48;40.01
73455;BME280;61690;51.824;6.306;2023-03-05T10:09:20;101607.25;;;18.48;39.82
73455;BME280;61690;51.824;6.306;2023-03-05T10:11:59;101602.84;;;18.49;39.74
73455;BME280;61690;51.824;6.306;2023-03-05T10:14:35;101602.84;;;18.49;39.67
73455;BME280;61690;51.824;6.306;2023-03-05T10:31:29;101583.13;;;18.56;39.83
73455;BME280;61690;51.824;6.306;2023-03-05T10:34:26;101577.19;;;18.68;39.56
73455;BME280;61690;51.824;6.306;2023-03-05T10:37:19;101575.91;;;18.75;39.44
73455;BME280;61690;51.824;6.306;2023-03-05T10:40:13;101568.00;;;18.75;39.11
73455;BME280;61690;51.824;6.306;2023-03-05T10:45:32;101565.19;;;18.78;39.36
73455;BME280;61690;51.824;6.306;2023-03-05T10:48:27;101568.88;;;18.76;39.50
73455;BME280;61690;51.824;6.306;2023-03-05T10:51:00;101560.09;;;18.75;39.03
73455;BME280;61690;51.824;6.306;2023-03-05T10:53:34;101563.84;;;18.71;39.15
73455;BME280;61690;51.824;6.306;2023-03-05T10:56:05;101562.16;;;18.70;39.42
73455;BME280;61690;51.824;6.306;2023-03-05T10:58:31;101555.16;;;18.69;39.20
73455;BME280;61690;51.824;6.306;2023-03-05T11:03:45;101548.97;;;18.70;39.19
73455;BME280;61690;51.824;6.306;2023-03-05T11:06:11;101549.06;;;18.69;39.33
73455;BME280;61690;51.824;6.306;2023-03-05T11:08:37;101542.25;;;18.65;39.37
73455;BME280;61690;51.824;6.306;2023-03-05T11:13:54;101541.41;;;18.64;39.50
73455;BME280;61690;51.824;6.306;2023-03-05T11:16:24;101544.06;;;18.64;39.57
73455;BME280;61690;51.824;6.306;2023-03-05T11:21:43;101531.19;;;18.58;39.44
73455;BME280;61690;51.824;6.306;2023-03-05T11:24:17;101527.78;;;18.56;39.70
73455;BME280;61690;51.824;6.306;2023-03-05T11:26:51;101534.00;;;18.55;39.88
73455;BME280;61690;51.824;6.306;2023-03-05T11:29:22;101526.88;;;18.57;39.39
73455;BME280;61690;51.824;6.306;2023-03-05T11:31:49;101530.44;;;18.56;39.57
73455;BME280;61690;51.824;6.306;2023-03-05T11:36:58;101525.69;;;18.63;39.32
73455;BME280;61690;51.824;6.306;2023-03-05T11:39:28;101511.56;;;18.64;39.65
73455;BME280;61690;51.824;6.306;2023-03-05T11:42:00;101513.09;;;18.68;39.64
73455;BME280;61690;51.824;6.306;2023-03-05T11:44:30;101509.25;;;18.73;38.93
73455;BME280;61690;51.824;6.306;2023-03-05T11:47:08;101504.59;;;18.78;39.21
73455;BME280;61690;51.824;6.306;2023-03-05T11:49:41;101500.09;;;18.80;39.03
73455;BME280;61690;51.824;6.306;2023-03-05T11:52:17;101499.19;;;18.82;39.21
73455;BME280;61690;51.824;6.306;2023-03-05T11:55:03;101501.81;;;18.82;39.21
73455;BME280;61690;51.824;6.306;2023-03-05T11:57:38;101495.59;;;18.83;39.13
73455;BME280;61690;51.824;6.306;2023-03-05T12:00:06;101485.13;;;18.81;39.37
73455;BME280;61690;51.824;6.306;2023-03-05T12:02:37;101478.09;;;18.82;39.13
73455;BME280;61690;51.824;6.306;2023-03-05T12:05:05;101473.66;;;18.82;39.22
73455;BME280;61690;51.824;6.306;2023-03-05T12:07:36;101469.22;;;18.83;39.02
73455;BME280;61690;51.824;6.306;2023-03-05T12:10:04;101459.66;;;18.82;39.04
73455;BME280;61690;51.824;6.306;2023-03-05T12:15:21;101459.19;;;18.89;39.08
73455;BME280;61690;51.824;6.306;2023-03-05T12:18:02;101461.66;;;18.92;39.16
73455;BME280;61690;51.824;6.306;2023-03-05T12:23:16;101445.25;;;18.87;40.02
73455;BME280;61690;51.824;6.306;2023-03-05T12:25:50;101439.09;;;19.03;39.83
73455;BME280;61690;51.824;6.306;2023-03-05T12:31:34;101426.53;;;18.92;40.10
73455;BME280;61690;51.824;6.306;2023-03-05T12:36:59;101427.22;;;18.79;40.02
73455;BME280;61690;51.824;6.306;2023-03-05T12:47:33;101407.88;;;18.65;40.19
73455;BME280;61690;51.824;6.306;2023-03-05T12:49:59;101408.91;;;18.62;40.21
73455;BME280;61690;51.824;6.306;2023-03-05T12:52:27;101393.84;;;18.64;40.12
73455;BME280;61690;51.824;6.306;2023-03-05T12:55:01;101390.25;;;18.65;40.12
73455;BME280;61690;51.824;6.306;2023-03-05T12:57:31;101390.25;;;18.65;40.11
73455;BME280;61690;51.824;6.306;2023-03-05T13:00:05;101382.59;;;18.76;40.15
73455;BME280;61690;51.824;6.306;2023-03-05T13:02:36;101383.22;;;18.82;39.79
73455;BME280;61690;51.824;6.306;2023-03-05T13:05:13;101377.66;;;18.86;39.56
73455;BME280;61690;51.824;6.306;2023-03-05T13:07:40;101371.16;;;18.92;39.79
73455;BME280;61690;51.824;6.306;2023-03-05T13:10:06;101368.25;;;18.96;39.34
73455;BME280;61690;51.824;6.306;2023-03-05T13:12:31;101365.53;;;18.98;39.33
73455;BME280;61690;51.824;6.306;2023-03-05T13:15:05;101361.28;;;18.95;39.51
73455;BME280;61690;51.824;6.306;2023-03-05T13:17:40;101359.50;;;18.96;39.40
73455;BME280;61690;51.824;6.306;2023-03-05T13:20:37;101351.78;;;18.93;39.44
73455;BME280;61690;51.824;6.306;2023-03-05T13:25:58;101344.44;;;18.84;40.00
73455;BME280;61690;51.824;6.306;2023-03-05T13:28:24;101334.19;;;18.93;39.64
73455;BME280;61690;51.824;6.306;2023-03-05T13:30:56;101332.31;;;18.95;39.36
73455;BME280;61690;51.824;6.306;2023-03-05T13:33:27;101330.78;;;18.91;39.76
73455;BME280;61690;51.824;6.306;2023-03-05T13:35:53;101329.53;;;18.83;39.70
73455;BME280;61690;51.824;6.306;2023-03-05T13:38:46;101330.50;;;18.82;39.83
73455;BME280;61690;51.824;6.306;2023-03-05T13:46:37;101324.78;;;18.73;39.90
73455;BME280;61690;51.824;6.306;2023-03-05T13:51:47;101327.78;;;18.67;40.27
73455;BME280;61690;51.824;6.306;2023-03-05T13:54:14;101320.84;;;18.66;39.96
73455;BME280;61690;51.824;6.306;2023-03-05T13:56:50;101316.41;;;18.67;40.24
73455;BME280;61690;51.824;6.306;2023-03-05T13:59:18;101317.25;;;18.67;39.90
73455;BME280;61690;51.824;6.306;2023-03-05T14:01:45;101310.47;;;18.63;40.00
73455;BME280;61690;51.824;6.306;2023-03-05T14:09:22;101305.09;;;18.65;40.05